sensor_id;sensor_type;location;lat;lon;timestamp;temperature;humidity
64685;DHT22;51109;47.414;18.954;2023-05-07T00:00:38;14.70;99.90
64685;DHT22;51109;47.414;18.954;2023-05-07T00:03:05;14.50;99.90
64685;DHT22;51109;47.414;18.954;2023-05-07T00:05:32;14.50;99.90
64685;DHT22;51109;47.414;18.954;2023-05-07T00:07:58;14.60;99.90
64685;DHT22;51109;47.414;18.954;2023-05-07T00:10:25;14.50;99.90
64685;DHT22;51109;47.414;18.954;2023-05-07T00:12:51;14.30;99.90
64685;DHT22;51109;47.414;18.954;2023-05-07T00:15:17;14.30;99.90
64685;DHT22;51109;47.414;18.954;2023-05-07T00:17:43;14.20;99.90
64685;DHT22;51109;47.414;18.954;2023-05-07T00:20:09;14.10;99.90
64685;DHT22;51109;47.414;18.954;2023-05-07T00:22:35;14.10;99.90
64685;DHT22;51109;47.414;18.954;2023-05-07T00:25:01;14.10;99.90
64685;DHT22;51109;47.414;18.954;2023-05-07T00:27:27;14.00;99.90
64685;DHT22;51109;47.414;18.954;2023-05-07T00:29:53;13.90;99.90
64685;DHT22;51109;47.414;18.954;2023-05-07T00:32:19;13.90;99.90
64685;DHT22;51109;47.414;18.954;2023-05-07T00:34:45;13.90;99.90
64685;DHT22;51109;47.414;18.954;2023-05-07T00:37:10;14.00;99.90
64685;DHT22;51109;47.414;18.954;2023-05-07T00:39:37;14.10;99.90
64685;DHT22;51109;47.414;18.954;2023-05-07T00:42:04;14.10;99.90
64685;DHT22;51109;47.414;18.954;2023-05-07T00:44:29;14.20;99.90
64685;DHT22;51109;47.414;18.954;2023-05-07T00:46:57;14.20;99.90
64685;DHT22;51109;47.414;18.954;2023-05-07T00:49:37;14.20;99.90
64685;DHT22;51109;47.414;18.954;2023-05-07T00:52:03;14.30;99.90
64685;DHT22;51109;47.414;18.954;2023-05-07T00:54:29;14.30;99.90
64685;DHT22;51109;47.414;18.954;2023-05-07T00:56:55;14.30;99.90
64685;DHT22;51109;47.414;18.954;2023-05-07T00:59:21;14.40;99.90
64685;DHT22;51109;47.414;18.954;2023-05-07T01:01:47;14.40;99.90
64685;DHT22;51109;47.414;18.954;2023-05-07T01:04:13;14.30;99.90
64685;DHT22;51109;47.414;18.954;2023-05-07T01:06:40;14.20;99.90
64685;DHT22;51109;47.414;18.954;2023-05-07T01:09:06;14.10;99.90
64685;DHT22;51109;47.414;18.954;2023-05-07T01:11:33;14.10;99.90
64685;DHT22;51109;47.414;18.954;2023-05-07T01:13:59;14.10;99.90
64685;DHT22;51109;47.414;18.954;2023-05-07T01:16:25;13.90;99.90
64685;DHT22;51109;47.414;18.954;2023-05-07T01:18:52;13.80;99.90
64685;DHT22;51109;47.414;18.954;2023-05-07T01:21:18;13.80;99.90
64685;DHT22;51109;47.414;18.954;2023-05-07T01:23:49;13.80;99.90
64685;DHT22;51109;47.414;18.954;2023-05-07T01:26:15;13.70;99.90
64685;DHT22;51109;47.414;18.954;2023-05-07T01:28:42;13.70;99.90
64685;DHT22;51109;47.414;18.954;2023-05-07T01:31:08;13.60;99.90
64685;DHT22;51109;47.414;18.954;2023-05-07T01:33:35;13.60;99.90
64685;DHT22;51109;47.414;18.954;2023-05-07T01:36:03;13.60;99.90
64685;DHT22;51109;47.414;18.954;2023-05-07T01:38:32;13.70;99.90
64685;DHT22;51109;47.414;18.954;2023-05-07T01:40:58;13.60;99.90
64685;DHT22;51109;47.414;18.954;2023-05-07T01:43:25;13.50;99.90
64685;DHT22;51109;47.414;18.954;2023-05-07T01:45:51;13.40;99.90
64685;DHT22;51109;47.414;18.954;2023-05-07T01:48:18;13.30;99.90
64685;DHT22;51109;47.414;18.954;2023-05-07T01:50:44;13.50;99.90
64685;DHT22;51109;47.414;18.954;2023-05-07T01:53:10;13.50;99.90
64685;DHT22;51109;47.414;18.954;2023-05-07T01:55:36;13.60;99.90
64685;DHT22;51109;47.414;18.954;2023-05-07T01:58:05;13.70;99.90
64685;DHT22;51109;47.414;18.954;2023-05-07T02:00:31;13.80;99.90
64685;DHT22;51109;47.414;18.954;2023-05-07T02:02:57;13.90;99.90
64685;DHT22;51109;47.414;18.954;2023-05-07T02:05:24;13.80;99.90
64685;DHT22;51109;47.414;18.954;2023-05-07T02:07:50;13.90;99.90
64685;DHT22;51109;47.414;18.954;2023-05-07T02:10:16;13.80;99.90
64685;DHT22;51109;47.414;18.954;2023-05-07T02:12:42;13.70;99.90
64685;DHT22;51109;47.414;18.954;2023-05-07T02:15:08;13.70;99.90
64685;DHT22;51109;47.414;18.954;2023-05-07T02:17:34;13.80;99.90
64685;DHT22;51109;47.414;18.954;2023-05-07T02:20:01;13.90;99.90
64685;DHT22;51109;47.414;18.954;2023-05-07T02:22:27;13.90;99.90
64685;DHT22;51109;47.414;18.954;2023-05-07T02:24:54;13.90;99.90
64685;DHT22;51109;47.414;18.954;2023-05-07T02:27:20;13.90;99.90
64685;DHT22;51109;47.414;18.954;2023-05-07T02:29:46;13.90;99.90
64685;DHT22;51109;47.414;18.954;2023-05-07T02:32:12;14.00;99.90
64685;DHT22;51109;47.414;18.954;2023-05-07T02:34:38;14.00;99.90
64685;DHT22;51109;47.414;18.954;2023-05-07T02:37:03;13.90;99.90
64685;DHT22;51109;47.414;18.954;2023-05-07T02:39:29;13.80;99.90
64685;DHT22;51109;47.414;18.954;2023-05-07T02:41:55;13.70;99.90
64685;DHT22;51109;47.414;18.954;2023-05-07T02:44:21;13.60;99.90
64685;DHT22;51109;47.414;18.954;2023-05-07T02:46:47;13.70;99.90
64685;DHT22;51109;47.414;18.954;2023-05-07T02:49:13;13.60;99.90
64685;DHT22;51109;47.414;18.954;2023-05-07T02:51:39;13.70;99.90
64685;DHT22;51109;47.414;18.954;2023-05-07T02:54:05;13.70;99.90
64685;DHT22;51109;47.414;18.954;2023-05-07T02:56:30;13.80;99.90
64685;DHT22;51109;47.414;18.954;2023-05-07T02:58:56;13.70;99.90
64685;DHT22;51109;47.414;18.954;2023-05-07T03:01:22;13.80;99.90
64685;DHT22;51109;47.414;18.954;2023-05-07T03:03:48;13.80;99.90
64685;DHT22;51109;47.414;18.954;2023-05-07T03:06:14;13.90;99.90
64685;DHT22;51109;47.414;18.954;2023-05-07T03:08:41;13.90;99.90
64685;DHT22;51109;47.414;18.954;2023-05-07T03:11:06;13.90;99.90
64685;DHT22;51109;47.414;18.954;2023-05-07T03:13:33;13.90;99.90
64685;DHT22;51109;47.414;18.954;2023-05-07T03:15:58;13.80;99.90
64685;DHT22;51109;47.414;18.954;2023-05-07T03:18:24;13.80;99.90
64685;DHT22;51109;47.414;18.954;2023-05-07T03:20:51;13.70;99.90
64685;DHT22;51109;47.414;18.954;2023-05-07T03:23:17;13.60;99.90
64685;DHT22;51109;47.414;18.954;2023-05-07T03:25:43;13.60;99.90
64685;DHT22;51109;47.414;18.954;2023-05-07T03:28:09;13.60;99.90
64685;DHT22;51109;47.414;18.954;2023-05-07T03:30:35;13.60;99.90
64685;DHT22;51109;47.414;18.954;2023-05-07T03:33:01;13.50;99.90
64685;DHT22;51109;47.414;18.954;2023-05-07T03:35:27;13.60;99.90
64685;DHT22;51109;47.414;18.954;2023-05-07T03:37:53;13.60;99.90
64685;DHT22;51109;47.414;18.954;2023-05-07T03:40:19;13.50;99.90
64685;DHT22;51109;47.414;18.954;2023-05-07T03:42:45;13.50;99.90
64685;DHT22;51109;47.414;18.954;2023-05-07T03:45:11;13.50;99.90
64685;DHT22;51109;47.414;18.954;2023-05-07T03:47:37;13.40;99.90
64685;DHT22;51109;47.414;18.954;2023-05-07T03:50:03;13.50;99.90
64685;DHT22;51109;47.414;18.954;2023-05-07T03:52:29;13.50;99.90
64685;DHT22;51109;47.414;18.954;2023-05-07T03:54:55;13.40;99.90
64685;DHT22;51109;47.414;18.954;2023-05-07T03:57:21;13.40;99.90
64685;DHT22;51109;47.414;18.954;2023-05-07T03:59:47;13.40;99.90
64685;DHT22;51109;47.414;18.954;2023-05-07T04:02:13;13.40;99.90
64685;DHT22;51109;47.414;18.954;2023-05-07T04:04:39;13.40;99.90
64685;DHT22;51109;47.414;18.954;2023-05-07T04:07:05;13.40;99.90
64685;DHT22;51109;47.414;18.954;2023-05-07T04:09:31;13.30;99.90
64685;DHT22;51109;47.414;18.954;2023-05-07T04:11:57;13.20;99.90
64685;DHT22;51109;47.414;18.954;2023-05-07T04:14:22;13.10;99.90
64685;DHT22;51109;47.414;18.954;2023-05-07T04:16:48;13.20;99.90
64685;DHT22;51109;47.414;18.954;2023-05-07T04:19:14;13.20;99.90
64685;DHT22;51109;47.414;18.954;2023-05-07T04:21:40;13.20;99.90
64685;DHT22;51109;47.414;18.954;2023-05-07T04:24:06;13.30;99.90
64685;DHT22;51109;47.414;18.954;2023-05-07T04:26:32;13.50;99.90
64685;DHT22;51109;47.414;18.954;2023-05-07T04:28:58;13.70;99.90
64685;DHT22;51109;47.414;18.954;2023-05-07T04:31:25;13.90;99.90
64685;DHT22;51109;47.414;18.954;2023-05-07T04:33:51;14.10;99.90
64685;DHT22;51109;47.414;18.954;2023-05-07T04:36:17;14.40;99.90
64685;DHT22;51109;47.414;18.954;2023-05-07T04:38:43;14.60;99.90
64685;DHT22;51109;47.414;18.954;2023-05-07T04:41:18;14.80;99.90
64685;DHT22;51109;47.414;18.954;2023-05-07T04:43:44;15.00;99.90
64685;DHT22;51109;47.414;18.954;2023-05-07T04:46:10;15.20;99.90
64685;DHT22;51109;47.414;18.954;2023-05-07T04:48:36;15.20;99.90
64685;DHT22;51109;47.414;18.954;2023-05-07T04:51:02;15.30;99.90
64685;DHT22;51109;47.414;18.954;2023-05-07T04:53:28;15.40;99.90
64685;DHT22;51109;47.414;18.954;2023-05-07T04:55:57;15.40;99.90
64685;DHT22;51109;47.414;18.954;2023-05-07T04:58:24;15.50;99.90
64685;DHT22;51109;47.414;18.954;2023-05-07T05:00:50;15.60;99.90
64685;DHT22;51109;47.414;18.954;2023-05-07T05:03:16;15.70;99.90
64685;DHT22;51109;47.414;18.954;2023-05-07T05:05:41;15.70;99.90
64685;DHT22;51109;47.414;18.954;2023-05-07T05:08:07;15.80;99.90
64685;DHT22;51109;47.414;18.954;2023-05-07T05:10:33;15.90;99.90
64685;DHT22;51109;47.414;18.954;2023-05-07T05:12:59;15.90;99.90
64685;DHT22;51109;47.414;18.954;2023-05-07T05:15:25;15.90;99.90
64685;DHT22;51109;47.414;18.954;2023-05-07T05:17:51;16.00;99.90
64685;DHT22;51109;47.414;18.954;2023-05-07T05:20:17;16.00;99.90
64685;DHT22;51109;47.414;18.954;2023-05-07T05:22:43;16.00;99.90
64685;DHT22;51109;47.414;18.954;2023-05-07T05:25:09;16.00;99.90
64685;DHT22;51109;47.414;18.954;2023-05-07T05:27:35;16.00;99.90
64685;DHT22;51109;47.414;18.954;2023-05-07T05:30:01;16.10;99.90
64685;DHT22;51109;47.414;18.954;2023-05-07T05:32:27;16.20;99.90
64685;DHT22;51109;47.414;18.954;2023-05-07T05:34:53;16.30;99.90
64685;DHT22;51109;47.414;18.954;2023-05-07T05:37:19;16.40;99.90
64685;DHT22;51109;47.414;18.954;2023-05-07T05:39:45;16.60;99.90
64685;DHT22;51109;47.414;18.954;2023-05-07T05:42:11;16.70;99.90
64685;DHT22;51109;47.414;18.954;2023-05-07T05:44:37;16.80;99.90
64685;DHT22;51109;47.414;18.954;2023-05-07T05:47:03;17.00;99.90
64685;DHT22;51109;47.414;18.954;2023-05-07T05:49:29;17.20;99.90
64685;DHT22;51109;47.414;18.954;2023-05-07T05:51:54;17.50;99.90
64685;DHT22;51109;47.414;18.954;2023-05-07T05:54:21;17.60;99.90
64685;DHT22;51109;47.414;18.954;2023-05-07T05:56:47;17.70;99.90
64685;DHT22;51109;47.414;18.954;2023-05-07T05:59:14;17.60;99.90
64685;DHT22;51109;47.414;18.954;2023-05-07T06:01:40;17.70;99.90
64685;DHT22;51109;47.414;18.954;2023-05-07T06:04:06;17.80;99.90
64685;DHT22;51109;47.414;18.954;2023-05-07T06:06:32;17.90;99.90
64685;DHT22;51109;47.414;18.954;2023-05-07T06:08:58;17.80;99.90
64685;DHT22;51109;47.414;18.954;2023-05-07T06:11:24;17.80;99.90
64685;DHT22;51109;47.414;18.954;2023-05-07T06:13:50;17.90;99.90
64685;DHT22;51109;47.414;18.954;2023-05-07T06:16:16;18.00;99.90
64685;DHT22;51109;47.414;18.954;2023-05-07T06:18:42;18.10;99.90
64685;DHT22;51109;47.414;18.954;2023-05-07T06:21:09;18.30;99.90
64685;DHT22;51109;47.414;18.954;2023-05-07T06:23:35;18.30;99.90
64685;DHT22;51109;47.414;18.954;2023-05-07T06:26:01;18.30;99.90
64685;DHT22;51109;47.414;18.954;2023-05-07T06:28:27;18.40;99.90
64685;DHT22;51109;47.414;18.954;2023-05-07T06:30:53;18.60;99.90
64685;DHT22;51109;47.414;18.954;2023-05-07T06:33:19;18.70;99.90
64685;DHT22;51109;47.414;18.954;2023-05-07T06:35:45;18.80;99.90
64685;DHT22;51109;47.414;18.954;2023-05-07T06:38:11;18.60;99.90
64685;DHT22;51109;47.414;18.954;2023-05-07T06:40:37;18.70;99.90
64685;DHT22;51109;47.414;18.954;2023-05-07T06:43:03;18.90;99.90
64685;DHT22;51109;47.414;18.954;2023-05-07T06:45:29;18.90;99.90
64685;DHT22;51109;47.414;18.954;2023-05-07T06:47:55;18.90;99.90
64685;DHT22;51109;47.414;18.954;2023-05-07T06:50:21;18.80;99.90
64685;DHT22;51109;47.414;18.954;2023-05-07T06:52:47;18.90;99.90
64685;DHT22;51109;47.414;18.954;2023-05-07T06:55:12;19.00;99.90
64685;DHT22;51109;47.414;18.954;2023-05-07T06:57:38;19.00;99.90
64685;DHT22;51109;47.414;18.954;2023-05-07T07:00:05;19.20;99.90
64685;DHT22;51109;47.414;18.954;2023-05-07T07:02:34;19.20;99.90
64685;DHT22;51109;47.414;18.954;2023-05-07T07:05:00;19.20;99.90
64685;DHT22;51109;47.414;18.954;2023-05-07T07:07:26;19.20;99.90
64685;DHT22;51109;47.414;18.954;2023-05-07T07:09:52;19.10;99.90
64685;DHT22;51109;47.414;18.954;2023-05-07T07:12:18;19.00;99.90
64685;DHT22;51109;47.414;18.954;2023-05-07T07:14:43;19.00;99.90
64685;DHT22;51109;47.414;18.954;2023-05-07T07:17:09;19.00;99.90
64685;DHT22;51109;47.414;18.954;2023-05-07T07:19:35;19.00;99.90
64685;DHT22;51109;47.414;18.954;2023-05-07T07:22:01;19.00;99.90
64685;DHT22;51109;47.414;18.954;2023-05-07T07:24:28;18.90;99.90
64685;DHT22;51109;47.414;18.954;2023-05-07T07:26:54;18.90;99.90
64685;DHT22;51109;47.414;18.954;2023-05-07T07:29:21;18.90;99.90
64685;DHT22;51109;47.414;18.954;2023-05-07T07:31:48;18.90;99.90
64685;DHT22;51109;47.414;18.954;2023-05-07T07:34:15;18.90;99.90
64685;DHT22;51109;47.414;18.954;2023-05-07T07:36:41;18.90;99.90
64685;DHT22;51109;47.414;18.954;2023-05-07T07:39:07;18.90;99.90
64685;DHT22;51109;47.414;18.954;2023-05-07T07:41:33;18.80;99.90
64685;DHT22;51109;47.414;18.954;2023-05-07T07:43:58;18.90;99.90
64685;DHT22;51109;47.414;18.954;2023-05-07T07:46:24;18.90;99.90
64685;DHT22;51109;47.414;18.954;2023-05-07T07:48:52;19.00;99.90
64685;DHT22;51109;47.414;18.954;2023-05-07T07:51:18;19.10;99.90
64685;DHT22;51109;47.414;18.954;2023-05-07T07:53:44;19.00;99.90
64685;DHT22;51109;47.414;18.954;2023-05-07T07:56:10;19.10;99.90
64685;DHT22;51109;47.414;18.954;2023-05-07T07:58:35;19.10;99.90
64685;DHT22;51109;47.414;18.954;2023-05-07T08:01:03;19.10;99.90
64685;DHT22;51109;47.414;18.954;2023-05-07T08:03:29;19.20;99.90
64685;DHT22;51109;47.414;18.954;2023-05-07T08:05:57;19.10;99.90
64685;DHT22;51109;47.414;18.954;2023-05-07T08:08:23;19.10;99.90
64685;DHT22;51109;47.414;18.954;2023-05-07T08:10:49;19.00;99.90
64685;DHT22;51109;47.414;18.954;2023-05-07T08:13:17;19.00;99.90
64685;DHT22;51109;47.414;18.954;2023-05-07T08:15:43;18.90;99.90
64685;DHT22;51109;47.414;18.954;2023-05-07T08:18:09;18.80;99.90
64685;DHT22;51109;47.414;18.954;2023-05-07T08:20:36;18.70;99.90
64685;DHT22;51109;47.414;18.954;2023-05-07T08:23:05;18.70;99.90
64685;DHT22;51109;47.414;18.954;2023-05-07T08:25:34;18.60;99.90
64685;DHT22;51109;47.414;18.954;2023-05-07T08:28:00;18.70;99.90
64685;DHT22;51109;47.414;18.954;2023-05-07T08:30:26;18.70;99.90
64685;DHT22;51109;47.414;18.954;2023-05-07T08:32:52;18.70;99.90
64685;DHT22;51109;47.414;18.954;2023-05-07T08:35:18;18.70;99.90
64685;DHT22;51109;47.414;18.954;2023-05-07T08:37:44;18.70;99.90
64685;DHT22;51109;47.414;18.954;2023-05-07T08:40:10;18.70;99.90
64685;DHT22;51109;47.414;18.954;2023-05-07T08:42:37;18.60;99.90
64685;DHT22;51109;47.414;18.954;2023-05-07T08:45:05;18.70;99.90
64685;DHT22;51109;47.414;18.954;2023-05-07T08:47:51;18.70;99.90
64685;DHT22;51109;47.414;18.954;2023-05-07T08:50:18;18.80;99.90
64685;DHT22;51109;47.414;18.954;2023-05-07T08:52:46;19.00;99.90
64685;DHT22;51109;47.414;18.954;2023-05-07T08:55:12;19.00;99.90
64685;DHT22;51109;47.414;18.954;2023-05-07T08:57:38;19.10;99.90
64685;DHT22;51109;47.414;18.954;2023-05-07T09:00:05;19.00;99.90
64685;DHT22;51109;47.414;18.954;2023-05-07T09:02:34;18.90;99.90
64685;DHT22;51109;47.414;18.954;2023-05-07T09:05:00;19.10;99.90
64685;DHT22;51109;47.414;18.954;2023-05-07T09:07:27;19.30;99.90
64685;DHT22;51109;47.414;18.954;2023-05-07T09:09:53;19.40;99.90
64685;DHT22;51109;47.414;18.954;2023-05-07T09:12:21;19.70;99.90
64685;DHT22;51109;47.414;18.954;2023-05-07T09:14:47;19.70;99.90
64685;DHT22;51109;47.414;18.954;2023-05-07T09:17:15;19.60;99.90
64685;DHT22;51109;47.414;18.954;2023-05-07T09:19:40;19.50;99.90
64685;DHT22;51109;47.414;18.954;2023-05-07T09:22:06;19.60;99.90
64685;DHT22;51109;47.414;18.954;2023-05-07T09:24:33;19.60;99.90
64685;DHT22;51109;47.414;18.954;2023-05-07T09:27:02;19.70;99.90
64685;DHT22;51109;47.414;18.954;2023-05-07T09:29:28;19.70;99.90
64685;DHT22;51109;47.414;18.954;2023-05-07T09:31:56;19.90;99.90
64685;DHT22;51109;47.414;18.954;2023-05-07T09:34:22;20.30;99.90
64685;DHT22;51109;47.414;18.954;2023-05-07T09:36:48;20.40;99.90
64685;DHT22;51109;47.414;18.954;2023-05-07T09:39:14;20.70;99.90
64685;DHT22;51109;47.414;18.954;2023-05-07T09:41:46;20.70;99.90
64685;DHT22;51109;47.414;18.954;2023-05-07T09:44:14;20.80;99.90
64685;DHT22;51109;47.414;18.954;2023-05-07T09:46:43;20.90;99.90
64685;DHT22;51109;47.414;18.954;2023-05-07T09:49:21;20.90;99.90
64685;DHT22;51109;47.414;18.954;2023-05-07T09:51:52;20.90;99.90
64685;DHT22;51109;47.414;18.954;2023-05-07T09:54:19;21.00;99.90
64685;DHT22;51109;47.414;18.954;2023-05-07T09:56:45;20.90;99.90
64685;DHT22;51109;47.414;18.954;2023-05-07T09:59:15;20.90;99.90
64685;DHT22;51109;47.414;18.954;2023-05-07T10:01:42;20.70;99.90
64685;DHT22;51109;47.414;18.954;2023-05-07T10:04:10;20.70;99.90
64685;DHT22;51109;47.414;18.954;2023-05-07T10:06:37;20.60;99.90
64685;DHT22;51109;47.414;18.954;2023-05-07T10:09:04;20.20;99.90
64685;DHT22;51109;47.414;18.954;2023-05-07T10:11:34;20.10;99.90
64685;DHT22;51109;47.414;18.954;2023-05-07T10:14:04;20.20;99.90
64685;DHT22;51109;47.414;18.954;2023-05-07T10:16:35;20.30;99.90
64685;DHT22;51109;47.414;18.954;2023-05-07T10:19:05;20.20;99.90
64685;DHT22;51109;47.414;18.954;2023-05-07T10:21:36;20.20;99.90
64685;DHT22;51109;47.414;18.954;2023-05-07T10:24:41;20.10;99.90
64685;DHT22;51109;47.414;18.954;2023-05-07T10:27:11;20.00;99.90
64685;DHT22;51109;47.414;18.954;2023-05-07T10:32:49;19.80;99.90
64685;DHT22;51109;47.414;18.954;2023-05-07T10:35:23;20.00;99.90
64685;DHT22;51109;47.414;18.954;2023-05-07T10:37:50;19.90;99.90
64685;DHT22;51109;47.414;18.954;2023-05-07T10:40:17;19.90;99.90
64685;DHT22;51109;47.414;18.954;2023-05-07T10:42:58;19.80;99.90
64685;DHT22;51109;47.414;18.954;2023-05-07T10:45:28;19.90;99.90
64685;DHT22;51109;47.414;18.954;2023-05-07T10:48:16;20.00;99.90
64685;DHT22;51109;47.414;18.954;2023-05-07T10:50:44;20.10;99.90
64685;DHT22;51109;47.414;18.954;2023-05-07T10:58:29;20.20;99.90
64685;DHT22;51109;47.414;18.954;2023-05-07T11:00:58;20.30;99.90
64685;DHT22;51109;47.414;18.954;2023-05-07T11:03:25;20.30;99.90
64685;DHT22;51109;47.414;18.954;2023-05-07T11:06:13;20.30;99.90
64685;DHT22;51109;47.414;18.954;2023-05-07T11:11:18;21.00;99.90
64685;DHT22;51109;47.414;18.954;2023-05-07T11:13:47;21.40;99.90
64685;DHT22;51109;47.414;18.954;2023-05-07T11:16:23;21.60;99.90
64685;DHT22;51109;47.414;18.954;2023-05-07T11:18:54;21.50;99.90
64685;DHT22;51109;47.414;18.954;2023-05-07T11:21:33;21.70;99.90
64685;DHT22;51109;47.414;18.954;2023-05-07T11:24:00;21.30;99.90
64685;DHT22;51109;47.414;18.954;2023-05-07T11:26:28;21.60;99.90
64685;DHT22;51109;47.414;18.954;2023-05-07T11:28:55;21.50;99.90
64685;DHT22;51109;47.414;18.954;2023-05-07T11:31:23;21.70;99.90
64685;DHT22;51109;47.414;18.954;2023-05-07T11:33:50;21.90;99.90
64685;DHT22;51109;47.414;18.954;2023-05-07T11:36:18;21.90;99.90
64685;DHT22;51109;47.414;18.954;2023-05-07T11:38:45;21.90;99.90
64685;DHT22;51109;47.414;18.954;2023-05-07T11:41:11;21.90;99.90
64685;DHT22;51109;47.414;18.954;2023-05-07T11:43:37;21.90;99.90
64685;DHT22;51109;47.414;18.954;2023-05-07T11:46:11;21.90;99.90
64685;DHT22;51109;47.414;18.954;2023-05-07T11:48:38;21.80;99.90
64685;DHT22;51109;47.414;18.954;2023-05-07T11:51:05;22.20;99.90
64685;DHT22;51109;47.414;18.954;2023-05-07T11:53:39;22.30;99.90
64685;DHT22;51109;47.414;18.954;2023-05-07T11:56:09;22.30;99.90
64685;DHT22;51109;47.414;18.954;2023-05-07T11:58:35;22.10;99.90
64685;DHT22;51109;47.414;18.954;2023-05-07T12:01:02;22.30;99.90
64685;DHT22;51109;47.414;18.954;2023-05-07T12:03:28;22.40;99.90
64685;DHT22;51109;47.414;18.954;2023-05-07T12:05:54;22.60;99.90
64685;DHT22;51109;47.414;18.954;2023-05-07T12:08:21;22.50;99.90
64685;DHT22;51109;47.414;18.954;2023-05-07T12:10:50;22.60;99.90
64685;DHT22;51109;47.414;18.954;2023-05-07T12:13:21;22.90;99.90
64685;DHT22;51109;47.414;18.954;2023-05-07T12:15:54;23.00;99.90
64685;DHT22;51109;47.414;18.954;2023-05-07T12:18:21;23.20;99.90
64685;DHT22;51109;47.414;18.954;2023-05-07T12:20:48;23.50;99.90
64685;DHT22;51109;47.414;18.954;2023-05-07T12:23:14;23.50;99.90
64685;DHT22;51109;47.414;18.954;2023-05-07T12:25:41;23.50;99.90
64685;DHT22;51109;47.414;18.954;2023-05-07T12:28:15;23.50;99.90
64685;DHT22;51109;47.414;18.954;2023-05-07T12:30:43;23.40;99.90
64685;DHT22;51109;47.414;18.954;2023-05-07T12:33:11;23.10;99.90
64685;DHT22;51109;47.414;18.954;2023-05-07T12:35:41;23.20;99.90
64685;DHT22;51109;47.414;18.954;2023-05-07T12:38:12;23.40;99.90
64685;DHT22;51109;47.414;18.954;2023-05-07T12:40:46;23.70;99.90
64685;DHT22;51109;47.414;18.954;2023-05-07T12:45:44;23.50;99.90
64685;DHT22;51109;47.414;18.954;2023-05-07T12:48:10;23.80;99.90
64685;DHT22;51109;47.414;18.954;2023-05-07T12:50:36;24.20;99.90
64685;DHT22;51109;47.414;18.954;2023-05-07T12:53:07;23.70;99.90
64685;DHT22;51109;47.414;18.954;2023-05-07T12:55:50;23.50;99.90
64685;DHT22;51109;47.414;18.954;2023-05-07T12:58:17;23.80;99.90
64685;DHT22;51109;47.414;18.954;2023-05-07T13:00:48;24.00;99.90
64685;DHT22;51109;47.414;18.954;2023-05-07T13:03:29;23.90;99.90
64685;DHT22;51109;47.414;18.954;2023-05-07T13:05:59;23.70;99.90
64685;DHT22;51109;47.414;18.954;2023-05-07T13:10:51;23.80;99.90
64685;DHT22;51109;47.414;18.954;2023-05-07T13:13:17;23.70;99.90
64685;DHT22;51109;47.414;18.954;2023-05-07T13:15:43;23.80;99.90
64685;DHT22;51109;47.414;18.954;2023-05-07T13:18:09;23.50;99.90
64685;DHT22;51109;47.414;18.954;2023-05-07T13:20:36;23.00;99.90
64685;DHT22;51109;47.414;18.954;2023-05-07T13:23:02;23.30;99.90
64685;DHT22;51109;47.414;18.954;2023-05-07T13:25:30;23.40;99.90
64685;DHT22;51109;47.414;18.954;2023-05-07T13:27:59;23.40;99.90
64685;DHT22;51109;47.414;18.954;2023-05-07T13:30:25;23.60;99.90
64685;DHT22;51109;47.414;18.954;2023-05-07T13:32:54;23.80;99.90
64685;DHT22;51109;47.414;18.954;2023-05-07T13:35:21;23.90;99.90
64685;DHT22;51109;47.414;18.954;2023-05-07T13:37:46;23.70;99.90
64685;DHT22;51109;47.414;18.954;2023-05-07T13:40:15;23.60;99.90
64685;DHT22;51109;47.414;18.954;2023-05-07T13:42:41;23.50;99.90
64685;DHT22;51109;47.414;18.954;2023-05-07T13:45:07;23.10;99.90
64685;DHT22;51109;47.414;18.954;2023-05-07T13:47:34;22.90;99.90
64685;DHT22;51109;47.414;18.954;2023-05-07T13:50:00;22.60;99.90
64685;DHT22;51109;47.414;18.954;2023-05-07T13:52:26;23.10;99.90
64685;DHT22;51109;47.414;18.954;2023-05-07T13:54:52;23.40;99.90
64685;DHT22;51109;47.414;18.954;2023-05-07T13:57:18;23.80;99.90
64685;DHT22;51109;47.414;18.954;2023-05-07T13:59:44;23.80;99.90
64685;DHT22;51109;47.414;18.954;2023-05-07T14:02:10;23.90;99.90
64685;DHT22;51109;47.414;18.954;2023-05-07T14:04:37;23.50;99.90
64685;DHT22;51109;47.414;18.954;2023-05-07T14:07:03;23.30;99.90
64685;DHT22;51109;47.414;18.954;2023-05-07T14:09:29;23.30;99.90
64685;DHT22;51109;47.414;18.954;2023-05-07T14:11:55;23.40;99.90
64685;DHT22;51109;47.414;18.954;2023-05-07T14:14:21;23.90;99.90
64685;DHT22;51109;47.414;18.954;2023-05-07T14:16:47;24.10;99.90
64685;DHT22;51109;47.414;18.954;2023-05-07T14:19:13;24.30;99.90
64685;DHT22;51109;47.414;18.954;2023-05-07T14:21:39;24.70;99.90
64685;DHT22;51109;47.414;18.954;2023-05-07T14:24:06;24.30;99.90
64685;DHT22;51109;47.414;18.954;2023-05-07T14:26:33;24.10;99.90
64685;DHT22;51109;47.414;18.954;2023-05-07T14:28:59;24.10;99.90
64685;DHT22;51109;47.414;18.954;2023-05-07T14:31:25;24.00;99.90
64685;DHT22;51109;47.414;18.954;2023-05-07T14:33:51;24.20;99.90
64685;DHT22;51109;47.414;18.954;2023-05-07T14:43:40;24.50;99.90
64685;DHT22;51109;47.414;18.954;2023-05-07T14:46:06;24.20;99.90
64685;DHT22;51109;47.414;18.954;2023-05-07T14:48:32;23.90;99.90
64685;DHT22;51109;47.414;18.954;2023-05-07T14:50:58;24.20;99.90
64685;DHT22;51109;47.414;18.954;2023-05-07T14:53:24;23.90;99.90
64685;DHT22;51109;47.414;18.954;2023-05-07T14:55:50;24.00;99.90
64685;DHT22;51109;47.414;18.954;2023-05-07T14:58:16;23.70;99.90
64685;DHT22;51109;47.414;18.954;2023-05-07T15:00:42;24.00;99.90
64685;DHT22;51109;47.414;18.954;2023-05-07T15:03:09;24.40;99.90
64685;DHT22;51109;47.414;18.954;2023-05-07T15:05:37;24.70;99.90
64685;DHT22;51109;47.414;18.954;2023-05-07T15:08:03;25.20;99.90
64685;DHT22;51109;47.414;18.954;2023-05-07T15:10:29;25.10;99.90
64685;DHT22;51109;47.414;18.954;2023-05-07T15:12:55;25.00;99.90
64685;DHT22;51109;47.414;18.954;2023-05-07T15:15:21;24.90;99.90
64685;DHT22;51109;47.414;18.954;2023-05-07T15:17:47;24.80;99.90
64685;DHT22;51109;47.414;18.954;2023-05-07T15:20:13;25.00;99.90
64685;DHT22;51109;47.414;18.954;2023-05-07T15:22:39;25.10;99.90
64685;DHT22;51109;47.414;18.954;2023-05-07T15:25:05;24.80;99.90
64685;DHT22;51109;47.414;18.954;2023-05-07T15:27:31;24.40;99.90
64685;DHT22;51109;47.414;18.954;2023-05-07T15:29:57;24.30;99.90
64685;DHT22;51109;47.414;18.954;2023-05-07T15:32:23;24.80;99.90
64685;DHT22;51109;47.414;18.954;2023-05-07T15:34:49;24.40;99.90
64685;DHT22;51109;47.414;18.954;2023-05-07T15:37:15;24.30;99.90